»·PEaware :: N131CA KSBA-KMRY

N131CA :: KSBA-KMRY

FLIGHT INFORMATION

Flight Status: Arrived
Operator: Privately registered:
United States
More flights under this callsign
Pilot: Tyler E. (7132)
Aircraft: BEECH AIRCRAFT PREMIER
(PRM1)
More flights by this aircraft type
Origin: KSBA Santa Barbara Mun
United States
Destination: KMRY Monterey Peninsula
United States
More flights between these airports :: More routes between these airports
Route: GAUCH2 MQO BSR
File this flight plan on PilotEdge
Remarks:
Altitude:
(Current/Filed)
20,000ft
Speed:
(Current/Filed)
300kts
Departed: 02-Oct-21 12:14 PM
Arrived: 02-Oct-21 12:50 PM
Distance/Time
Traveled:
163nm/0:35
Distance/Time
To Go:
Arrived

Flight Plot

Page will automatically refresh every two minutes.

Flight plan parsing failed; only flown route is shown


Map Options




Map Legend


Flown Route
Filed Route
Departure Airport
Arrival Airport
Navaid (VOR, NDB)
Fix

Horizontal Profiles

Position Reports

Time Latitude Longitude Heading Altitude Ground
Speed
02-Oct-21 12:01 34.431702 -119.837322 70 15ft 0kts
02-Oct-21 12:02 34.431702 -119.837322 70 15ft 0kts
02-Oct-21 12:03 34.431702 -119.837322 70 15ft 0kts
02-Oct-21 12:04 34.431702 -119.837322 70 15ft 0kts
02-Oct-21 12:05 34.431702 -119.837322 70 15ft 0kts
02-Oct-21 12:06 34.431702 -119.837322 70 15ft 0kts
02-Oct-21 12:07 34.431702 -119.837322 70 15ft 0kts
02-Oct-21 12:08 34.431702 -119.837322 70 15ft 0kts
02-Oct-21 12:09 34.431702 -119.837322 70 15ft 0kts
02-Oct-21 12:10 34.431952 -119.835602 72 15ft 9kts
02-Oct-21 12:11 34.429733 -119.835259 179 15ft 11kts
02-Oct-21 12:12 34.427908 -119.835376 254 15ft 3kts
02-Oct-21 12:13 34.427695 -119.867282 267 1266ft 148kts
02-Oct-21 12:14 34.426007 -119.929994 267 3018ft 227kts
02-Oct-21 12:15 34.424577 -120.004814 267 2999ft 220kts
02-Oct-21 12:16 34.423073 -120.083702 267 5233ft 266kts
02-Oct-21 12:17 34.435344 -120.172985 308 7809ft 284kts
02-Oct-21 12:18 34.506599 -120.222651 335 10476ft 313kts
02-Oct-21 12:19 34.589366 -120.274689 325 13512ft 344kts
02-Oct-21 12:20 34.664564 -120.344650 321 16500ft 336kts
02-Oct-21 12:21 34.737354 -120.411045 326 19484ft 318kts
02-Oct-21 12:22 34.819624 -120.467428 330 20081ft 354kts
02-Oct-21 12:23 34.907676 -120.526636 330 20088ft 367kts
02-Oct-21 12:24 34.997566 -120.587208 330 20084ft 369kts
02-Oct-21 12:25 35.087545 -120.647986 330 20069ft 370kts
02-Oct-21 12:26 35.177671 -120.709049 330 20061ft 370kts
02-Oct-21 12:27 35.265853 -120.773005 323 20061ft 369kts
02-Oct-21 12:28 35.347691 -120.849221 321 20062ft 368kts
02-Oct-21 12:29 35.428796 -120.925405 321 20066ft 368kts
02-Oct-21 12:30 35.510001 -121.001905 321 20064ft 368kts
02-Oct-21 12:31 35.587656 -121.075247 321 18215ft 342kts
02-Oct-21 12:32 35.662575 -121.146185 321 16220ft 340kts
02-Oct-21 12:33 35.737620 -121.217436 321 14224ft 341kts
02-Oct-21 12:34 35.811263 -121.287520 322 13149ft 330kts
02-Oct-21 12:35 35.883753 -121.356660 322 12149ft 329kts
02-Oct-21 12:36 35.952075 -121.421985 322 11138ft 297kts
02-Oct-21 12:37 36.017395 -121.484569 322 10139ft 297kts
02-Oct-21 12:38 36.082645 -121.547217 321 9144ft 298kts
02-Oct-21 12:39 36.148312 -121.610407 321 8154ft 299kts
02-Oct-21 12:40 36.215810 -121.659133 338 8000ft 266kts
02-Oct-21 12:41 36.285588 -121.677743 9 8005ft 266kts
02-Oct-21 12:42 36.360443 -121.657178 13 7316ft 284kts
02-Oct-21 12:43 36.436013 -121.635064 14 6426ft 272kts
02-Oct-21 12:44 36.503016 -121.653179 337 5570ft 222kts
02-Oct-21 12:45 36.539947 -121.705712 292 3601ft 188kts
02-Oct-21 12:47 36.557404 -121.757005 294 1922ft 145kts
02-Oct-21 12:48 36.571843 -121.799487 295 1116ft 129kts
02-Oct-21 12:49 36.585698 -121.840469 293 213ft 114kts
02-Oct-21 12:50 36.589694 -121.854650 254 210ft 0kts
02-Oct-21 12:51 36.589299 -121.856550 255 210ft 14kts
02-Oct-21 12:52 36.589359 -121.857863 342 210ft 0kts
02-Oct-21 12:53 36.589359 -121.857863 342 210ft 0kts
02-Oct-21 12:54 36.589359 -121.857863 342 210ft 0kts
02-Oct-21 12:55 36.589359 -121.857863 342 210ft 0kts
02-Oct-21 12:56 36.589359 -121.857863 342 210ft 0kts
02-Oct-21 12:57 36.589359 -121.857863 342 210ft 0kts
02-Oct-21 12:58 36.589359 -121.857863 342 210ft 0kts
02-Oct-21 12:59 36.589359 -121.857863 342 210ft 0kts
02-Oct-21 13:00 36.589359 -121.857863 342 210ft 0kts
02-Oct-21 13:01 36.589359 -121.857863 342 210ft 0kts
02-Oct-21 13:02 36.589359 -121.857863 342 210ft 0kts
02-Oct-21 13:03 36.589359 -121.857863 342 210ft 0kts
02-Oct-21 13:04 36.589359 -121.857863 342 210ft 0kts

Navigation Log

Ident Type
Flight plan parsing failed, navigation log unavailable